sensor_id;sensor_type;location;lat;lon;timestamp;P1;durP1;ratioP1;P2;durP2;ratioP2
51048;SDS011;37084;55.228;36.450;2023-02-25T00:00:37;17.02;;;7.53;;
51048;SDS011;37084;55.228;36.450;2023-02-25T00:03:39;13.88;;;6.28;;
51048;SDS011;37084;55.228;36.450;2023-02-25T00:06:41;16.10;;;7.45;;
51048;SDS011;37084;55.228;36.450;2023-02-25T00:09:42;10.70;;;5.15;;
51048;SDS011;37084;55.228;36.450;2023-02-25T00:12:43;14.43;;;6.30;;
51048;SDS011;37084;55.228;36.450;2023-02-25T00:15:44;14.82;;;6.65;;
51048;SDS011;37084;55.228;36.450;2023-02-25T00:18:46;11.32;;;5.28;;
51048;SDS011;37084;55.228;36.450;2023-02-25T00:21:48;18.98;;;6.57;;
51048;SDS011;37084;55.228;36.450;2023-02-25T00:24:52;14.27;;;6.68;;
51048;SDS011;37084;55.228;36.450;2023-02-25T00:27:54;13.43;;;6.85;;
51048;SDS011;37084;55.228;36.450;2023-02-25T00:30:57;11.52;;;5.78;;
51048;SDS011;37084;55.228;36.450;2023-02-25T00:33:59;13.45;;;6.25;;
51048;SDS011;37084;55.228;36.450;2023-02-25T00:37:00;16.58;;;6.65;;
51048;SDS011;37084;55.228;36.450;2023-02-25T00:40:01;12.73;;;6.75;;
51048;SDS011;37084;55.228;36.450;2023-02-25T00:43:06;13.70;;;6.00;;
51048;SDS011;37084;55.228;36.450;2023-02-25T00:46:08;15.40;;;6.72;;
51048;SDS011;37084;55.228;36.450;2023-02-25T00:49:10;12.98;;;6.07;;
51048;SDS011;37084;55.228;36.450;2023-02-25T00:52:11;13.38;;;6.45;;
51048;SDS011;37084;55.228;36.450;2023-02-25T00:55:13;14.65;;;6.20;;
51048;SDS011;37084;55.228;36.450;2023-02-25T00:58:14;12.82;;;6.20;;
51048;SDS011;37084;55.228;36.450;2023-02-25T01:01:26;12.93;;;5.78;;
51048;SDS011;37084;55.228;36.450;2023-02-25T01:04:29;12.35;;;5.80;;
51048;SDS011;37084;55.228;36.450;2023-02-25T01:07:30;7.45;;;4.50;;
51048;SDS011;37084;55.228;36.450;2023-02-25T01:10:31;12.10;;;4.85;;
51048;SDS011;37084;55.228;36.450;2023-02-25T01:13:32;12.32;;;6.82;;
51048;SDS011;37084;55.228;36.450;2023-02-25T01:16:34;9.20;;;4.57;;
51048;SDS011;37084;55.228;36.450;2023-02-25T01:19:36;12.25;;;5.43;;
51048;SDS011;37084;55.228;36.450;2023-02-25T01:22:38;12.93;;;5.00;;
51048;SDS011;37084;55.228;36.450;2023-02-25T01:25:41;11.90;;;5.75;;
51048;SDS011;37084;55.228;36.450;2023-02-25T01:28:42;11.18;;;5.22;;
51048;SDS011;37084;55.228;36.450;2023-02-25T01:31:43;12.93;;;5.85;;
51048;SDS011;37084;55.228;36.450;2023-02-25T01:34:45;10.32;;;5.22;;
51048;SDS011;37084;55.228;36.450;2023-02-25T01:37:46;9.68;;;5.38;;
51048;SDS011;37084;55.228;36.450;2023-02-25T01:40:55;10.98;;;5.63;;
51048;SDS011;37084;55.228;36.450;2023-02-25T01:44:02;11.20;;;5.05;;
51048;SDS011;37084;55.228;36.450;2023-02-25T01:47:18;9.98;;;5.72;;
51048;SDS011;37084;55.228;36.450;2023-02-25T01:50:21;7.07;;;3.33;;
51048;SDS011;37084;55.228;36.450;2023-02-25T01:53:26;10.52;;;5.85;;
51048;SDS011;37084;55.228;36.450;2023-02-25T01:56:30;11.25;;;5.60;;
51048;SDS011;37084;55.228;36.450;2023-02-25T01:59:31;10.93;;;5.15;;
51048;SDS011;37084;55.228;36.450;2023-02-25T02:02:33;9.57;;;5.70;;
51048;SDS011;37084;55.228;36.450;2023-02-25T02:05:55;9.48;;;4.28;;
51048;SDS011;37084;55.228;36.450;2023-02-25T02:09:21;9.65;;;5.30;;
51048;SDS011;37084;55.228;36.450;2023-02-25T02:12:26;9.45;;;5.15;;
51048;SDS011;37084;55.228;36.450;2023-02-25T02:15:30;7.80;;;4.22;;
51048;SDS011;37084;55.228;36.450;2023-02-25T02:18:34;8.15;;;4.07;;
51048;SDS011;37084;55.228;36.450;2023-02-25T02:21:59;10.68;;;5.40;;
51048;SDS011;37084;55.228;36.450;2023-02-25T02:32:03;10.45;;;4.78;;
51048;SDS011;37084;55.228;36.450;2023-02-25T02:44:41;9.27;;;5.00;;
51048;SDS011;37084;55.228;36.450;2023-02-25T02:47:53;9.00;;;4.30;;
51048;SDS011;37084;55.228;36.450;2023-02-25T02:51:02;8.13;;;5.47;;
51048;SDS011;37084;55.228;36.450;2023-02-25T02:54:10;9.05;;;4.70;;
51048;SDS011;37084;55.228;36.450;2023-02-25T02:57:12;9.50;;;4.55;;
51048;SDS011;37084;55.228;36.450;2023-02-25T03:00:15;7.07;;;4.22;;
51048;SDS011;37084;55.228;36.450;2023-02-25T03:03:23;7.28;;;3.30;;
51048;SDS011;37084;55.228;36.450;2023-02-25T03:06:37;8.27;;;4.35;;
51048;SDS011;37084;55.228;36.450;2023-02-25T03:09:51;8.30;;;4.13;;
51048;SDS011;37084;55.228;36.450;2023-02-25T03:12:54;8.73;;;4.50;;
51048;SDS011;37084;55.228;36.450;2023-02-25T03:15:55;9.18;;;4.20;;
51048;SDS011;37084;55.228;36.450;2023-02-25T03:19:33;8.10;;;4.18;;
51048;SDS011;37084;55.228;36.450;2023-02-25T03:22:37;6.57;;;4.00;;
51048;SDS011;37084;55.228;36.450;2023-02-25T03:25:43;7.15;;;4.00;;
51048;SDS011;37084;55.228;36.450;2023-02-25T03:28:53;6.60;;;3.90;;
51048;SDS011;37084;55.228;36.450;2023-02-25T03:32:05;7.50;;;4.05;;
51048;SDS011;37084;55.228;36.450;2023-02-25T03:35:10;7.55;;;3.28;;
51048;SDS011;37084;55.228;36.450;2023-02-25T03:38:14;8.70;;;4.40;;
51048;SDS011;37084;55.228;36.450;2023-02-25T03:41:19;11.35;;;5.30;;
51048;SDS011;37084;55.228;36.450;2023-02-25T03:44:26;6.45;;;3.50;;
51048;SDS011;37084;55.228;36.450;2023-02-25T03:47:30;6.55;;;4.25;;
51048;SDS011;37084;55.228;36.450;2023-02-25T03:51:08;7.28;;;3.55;;
51048;SDS011;37084;55.228;36.450;2023-02-25T03:54:05;7.95;;;4.50;;
51048;SDS011;37084;55.228;36.450;2023-02-25T03:57:08;7.45;;;4.10;;
51048;SDS011;37084;55.228;36.450;2023-02-25T04:00:21;6.13;;;3.17;;
51048;SDS011;37084;55.228;36.450;2023-02-25T04:03:24;5.43;;;3.50;;
51048;SDS011;37084;55.228;36.450;2023-02-25T04:06:26;8.20;;;4.07;;
51048;SDS011;37084;55.228;36.450;2023-02-25T04:09:27;5.43;;;3.20;;
51048;SDS011;37084;55.228;36.450;2023-02-25T04:12:29;6.90;;;3.65;;
51048;SDS011;37084;55.228;36.450;2023-02-25T04:15:30;5.88;;;3.53;;
51048;SDS011;37084;55.228;36.450;2023-02-25T04:18:31;5.88;;;3.50;;
51048;SDS011;37084;55.228;36.450;2023-02-25T04:21:33;6.00;;;3.70;;
51048;SDS011;37084;55.228;36.450;2023-02-25T04:24:36;5.28;;;3.33;;
51048;SDS011;37084;55.228;36.450;2023-02-25T04:27:37;5.63;;;4.85;;
51048;SDS011;37084;55.228;36.450;2023-02-25T04:30:38;5.63;;;3.22;;
51048;SDS011;37084;55.228;36.450;2023-02-25T04:33:39;8.35;;;3.97;;
51048;SDS011;37084;55.228;36.450;2023-02-25T04:36:41;3.08;;;2.38;;
51048;SDS011;37084;55.228;36.450;2023-02-25T04:39:44;4.43;;;3.03;;
51048;SDS011;37084;55.228;36.450;2023-02-25T04:42:45;7.70;;;3.80;;
51048;SDS011;37084;55.228;36.450;2023-02-25T04:45:47;6.57;;;4.90;;
51048;SDS011;37084;55.228;36.450;2023-02-25T04:48:48;8.13;;;4.00;;
51048;SDS011;37084;55.228;36.450;2023-02-25T04:51:50;4.97;;;3.63;;
51048;SDS011;37084;55.228;36.450;2023-02-25T04:54:51;5.20;;;2.92;;
51048;SDS011;37084;55.228;36.450;2023-02-25T04:57:53;5.90;;;3.22;;
51048;SDS011;37084;55.228;36.450;2023-02-25T05:00:54;5.13;;;2.90;;
51048;SDS011;37084;55.228;36.450;2023-02-25T05:03:57;5.53;;;3.00;;
51048;SDS011;37084;55.228;36.450;2023-02-25T05:07:00;4.82;;;3.20;;
51048;SDS011;37084;55.228;36.450;2023-02-25T05:10:01;5.97;;;3.38;;
51048;SDS011;37084;55.228;36.450;2023-02-25T05:13:04;5.43;;;3.47;;
51048;SDS011;37084;55.228;36.450;2023-02-25T05:16:07;4.85;;;3.03;;
51048;SDS011;37084;55.228;36.450;2023-02-25T05:19:16;4.93;;;3.53;;
51048;SDS011;37084;55.228;36.450;2023-02-25T05:22:22;4.80;;;3.17;;
51048;SDS011;37084;55.228;36.450;2023-02-25T05:25:23;4.47;;;3.13;;
51048;SDS011;37084;55.228;36.450;2023-02-25T05:28:25;5.43;;;3.25;;
51048;SDS011;37084;55.228;36.450;2023-02-25T05:31:26;4.15;;;3.17;;
51048;SDS011;37084;55.228;36.450;2023-02-25T05:34:28;5.15;;;2.63;;
51048;SDS011;37084;55.228;36.450;2023-02-25T05:37:30;4.38;;;3.00;;
51048;SDS011;37084;55.228;36.450;2023-02-25T05:40:32;5.18;;;3.08;;
51048;SDS011;37084;55.228;36.450;2023-02-25T05:43:33;5.32;;;3.08;;
51048;SDS011;37084;55.228;36.450;2023-02-25T05:46:35;5.22;;;3.70;;
51048;SDS011;37084;55.228;36.450;2023-02-25T05:49:36;4.20;;;2.85;;
51048;SDS011;37084;55.228;36.450;2023-02-25T05:52:39;4.93;;;2.85;;
51048;SDS011;37084;55.228;36.450;2023-02-25T05:55:40;5.20;;;3.33;;
51048;SDS011;37084;55.228;36.450;2023-02-25T05:58:42;4.03;;;2.38;;
51048;SDS011;37084;55.228;36.450;2023-02-25T06:01:43;5.15;;;2.67;;
51048;SDS011;37084;55.228;36.450;2023-02-25T06:04:45;5.10;;;2.72;;
51048;SDS011;37084;55.228;36.450;2023-02-25T06:07:47;3.78;;;2.35;;
51048;SDS011;37084;55.228;36.450;2023-02-25T06:10:48;4.70;;;2.88;;
51048;SDS011;37084;55.228;36.450;2023-02-25T06:13:50;3.65;;;2.70;;
51048;SDS011;37084;55.228;36.450;2023-02-25T06:16:52;5.32;;;3.70;;
51048;SDS011;37084;55.228;36.450;2023-02-25T06:19:57;5.03;;;3.58;;
51048;SDS011;37084;55.228;36.450;2023-02-25T06:22:58;4.25;;;3.10;;
51048;SDS011;37084;55.228;36.450;2023-02-25T06:25:59;4.97;;;2.92;;
51048;SDS011;37084;55.228;36.450;2023-02-25T06:29:00;4.70;;;3.53;;
51048;SDS011;37084;55.228;36.450;2023-02-25T06:32:01;4.97;;;4.53;;
51048;SDS011;37084;55.228;36.450;2023-02-25T06:35:02;4.95;;;3.05;;
51048;SDS011;37084;55.228;36.450;2023-02-25T06:38:06;4.80;;;3.25;;
51048;SDS011;37084;55.228;36.450;2023-02-25T06:41:08;4.60;;;3.10;;
51048;SDS011;37084;55.228;36.450;2023-02-25T06:44:10;4.40;;;3.03;;
51048;SDS011;37084;55.228;36.450;2023-02-25T06:47:12;5.03;;;3.15;;
51048;SDS011;37084;55.228;36.450;2023-02-25T06:50:13;4.35;;;2.88;;
51048;SDS011;37084;55.228;36.450;2023-02-25T06:53:14;3.83;;;2.67;;
51048;SDS011;37084;55.228;36.450;2023-02-25T06:56:16;3.90;;;2.78;;
51048;SDS011;37084;55.228;36.450;2023-02-25T06:59:19;4.18;;;3.15;;
51048;SDS011;37084;55.228;36.450;2023-02-25T07:02:21;3.58;;;2.83;;
51048;SDS011;37084;55.228;36.450;2023-02-25T07:05:22;5.28;;;3.88;;
51048;SDS011;37084;55.228;36.450;2023-02-25T07:08:23;5.05;;;2.65;;
51048;SDS011;37084;55.228;36.450;2023-02-25T07:11:26;4.63;;;2.85;;
51048;SDS011;37084;55.228;36.450;2023-02-25T07:14:30;5.20;;;4.57;;
51048;SDS011;37084;55.228;36.450;2023-02-25T07:17:31;5.10;;;3.05;;
51048;SDS011;37084;55.228;36.450;2023-02-25T07:20:32;3.70;;;2.75;;
51048;SDS011;37084;55.228;36.450;2023-02-25T07:23:34;4.15;;;2.90;;
51048;SDS011;37084;55.228;36.450;2023-02-25T07:26:35;4.00;;;2.70;;
51048;SDS011;37084;55.228;36.450;2023-02-25T07:29:37;4.32;;;2.80;;
51048;SDS011;37084;55.228;36.450;2023-02-25T07:32:40;3.78;;;2.38;;
51048;SDS011;37084;55.228;36.450;2023-02-25T07:35:42;3.45;;;2.22;;
51048;SDS011;37084;55.228;36.450;2023-02-25T07:38:43;3.60;;;2.60;;
51048;SDS011;37084;55.228;36.450;2023-02-25T07:41:44;3.50;;;2.60;;
51048;SDS011;37084;55.228;36.450;2023-02-25T07:44:47;4.10;;;2.38;;
51048;SDS011;37084;55.228;36.450;2023-02-25T07:47:51;2.13;;;1.92;;
51048;SDS011;37084;55.228;36.450;2023-02-25T07:50:53;2.90;;;2.38;;
51048;SDS011;37084;55.228;36.450;2023-02-25T07:53:55;2.25;;;2.05;;
51048;SDS011;37084;55.228;36.450;2023-02-25T07:56:57;2.60;;;2.28;;
51048;SDS011;37084;55.228;36.450;2023-02-25T07:59:58;2.38;;;1.90;;
51048;SDS011;37084;55.228;36.450;2023-02-25T08:02:59;3.10;;;2.10;;
51048;SDS011;37084;55.228;36.450;2023-02-25T08:06:00;4.93;;;2.80;;
51048;SDS011;37084;55.228;36.450;2023-02-25T08:09:07;4.10;;;2.40;;
51048;SDS011;37084;55.228;36.450;2023-02-25T08:12:12;4.18;;;3.10;;
51048;SDS011;37084;55.228;36.450;2023-02-25T08:15:13;3.08;;;2.67;;
51048;SDS011;37084;55.228;36.450;2023-02-25T08:18:14;3.97;;;1.90;;
51048;SDS011;37084;55.228;36.450;2023-02-25T08:21:16;2.97;;;2.17;;
51048;SDS011;37084;55.228;36.450;2023-02-25T08:24:19;2.67;;;2.10;;
51048;SDS011;37084;55.228;36.450;2023-02-25T08:27:21;2.72;;;2.30;;
51048;SDS011;37084;55.228;36.450;2023-02-25T08:30:22;2.88;;;2.53;;
51048;SDS011;37084;55.228;36.450;2023-02-25T08:33:24;3.22;;;2.55;;
51048;SDS011;37084;55.228;36.450;2023-02-25T08:36:27;2.95;;;2.30;;
51048;SDS011;37084;55.228;36.450;2023-02-25T08:39:30;4.28;;;3.97;;
51048;SDS011;37084;55.228;36.450;2023-02-25T08:42:33;2.35;;;2.03;;
51048;SDS011;37084;55.228;36.450;2023-02-25T08:45:38;3.45;;;2.50;;
51048;SDS011;37084;55.228;36.450;2023-02-25T08:48:42;3.40;;;2.40;;
51048;SDS011;37084;55.228;36.450;2023-02-25T08:51:44;2.55;;;2.00;;
51048;SDS011;37084;55.228;36.450;2023-02-25T08:54:45;3.60;;;2.45;;
51048;SDS011;37084;55.228;36.450;2023-02-25T08:57:46;14.88;;;7.22;;
51048;SDS011;37084;55.228;36.450;2023-02-25T09:00:47;2.58;;;2.35;;
51048;SDS011;37084;55.228;36.450;2023-02-25T09:03:49;5.10;;;3.13;;
51048;SDS011;37084;55.228;36.450;2023-02-25T09:06:51;3.03;;;2.35;;
51048;SDS011;37084;55.228;36.450;2023-02-25T09:09:53;2.55;;;2.05;;
51048;SDS011;37084;55.228;36.450;2023-02-25T09:12:54;3.92;;;2.33;;
51048;SDS011;37084;55.228;36.450;2023-02-25T09:15:56;2.45;;;1.95;;
51048;SDS011;37084;55.228;36.450;2023-02-25T09:18:57;4.00;;;2.40;;
51048;SDS011;37084;55.228;36.450;2023-02-25T09:21:58;4.22;;;3.90;;
51048;SDS011;37084;55.228;36.450;2023-02-25T09:25:00;3.15;;;2.05;;
51048;SDS011;37084;55.228;36.450;2023-02-25T09:28:03;2.03;;;1.88;;
51048;SDS011;37084;55.228;36.450;2023-02-25T09:31:04;2.67;;;2.22;;
51048;SDS011;37084;55.228;36.450;2023-02-25T09:34:07;2.70;;;1.95;;
51048;SDS011;37084;55.228;36.450;2023-02-25T09:37:09;2.17;;;1.63;;
51048;SDS011;37084;55.228;36.450;2023-02-25T09:40:14;1.83;;;1.52;;
51048;SDS011;37084;55.228;36.450;2023-02-25T09:43:23;3.22;;;2.20;;
51048;SDS011;37084;55.228;36.450;2023-02-25T09:46:28;2.75;;;2.30;;
51048;SDS011;37084;55.228;36.450;2023-02-25T09:52:58;2.60;;;2.28;;
51048;SDS011;37084;55.228;36.450;2023-02-25T09:56:03;3.22;;;2.60;;
51048;SDS011;37084;55.228;36.450;2023-02-25T09:59:07;2.88;;;2.55;;
51048;SDS011;37084;55.228;36.450;2023-02-25T10:05:49;3.00;;;2.38;;
51048;SDS011;37084;55.228;36.450;2023-02-25T10:19:41;3.40;;;2.35;;
51048;SDS011;37084;55.228;36.450;2023-02-25T10:23:11;3.13;;;2.20;;
51048;SDS011;37084;55.228;36.450;2023-02-25T10:26:45;4.63;;;2.90;;
51048;SDS011;37084;55.228;36.450;2023-02-25T10:29:51;3.53;;;2.83;;
51048;SDS011;37084;55.228;36.450;2023-02-25T10:32:55;2.90;;;2.60;;
51048;SDS011;37084;55.228;36.450;2023-02-25T10:36:00;4.75;;;3.08;;
51048;SDS011;37084;55.228;36.450;2023-02-25T10:39:03;4.30;;;3.15;;
51048;SDS011;37084;55.228;36.450;2023-02-25T10:42:04;3.83;;;2.55;;
51048;SDS011;37084;55.228;36.450;2023-02-25T10:45:07;4.13;;;2.63;;
51048;SDS011;37084;55.228;36.450;2023-02-25T10:48:18;4.68;;;3.08;;
51048;SDS011;37084;55.228;36.450;2023-02-25T10:51:21;5.95;;;2.85;;
51048;SDS011;37084;55.228;36.450;2023-02-25T10:54:22;4.72;;;2.85;;
51048;SDS011;37084;55.228;36.450;2023-02-25T10:57:30;4.95;;;3.25;;
51048;SDS011;37084;55.228;36.450;2023-02-25T11:00:39;5.10;;;2.83;;
51048;SDS011;37084;55.228;36.450;2023-02-25T11:06:55;4.70;;;2.95;;
51048;SDS011;37084;55.228;36.450;2023-02-25T11:10:14;5.22;;;4.47;;
51048;SDS011;37084;55.228;36.450;2023-02-25T11:13:29;5.95;;;3.25;;
51048;SDS011;37084;55.228;36.450;2023-02-25T11:16:35;4.03;;;3.10;;
51048;SDS011;37084;55.228;36.450;2023-02-25T11:19:38;4.10;;;2.90;;
51048;SDS011;37084;55.228;36.450;2023-02-25T11:22:43;5.00;;;3.30;;
51048;SDS011;37084;55.228;36.450;2023-02-25T11:25:46;5.38;;;3.50;;
51048;SDS011;37084;55.228;36.450;2023-02-25T11:28:47;4.60;;;3.03;;
51048;SDS011;37084;55.228;36.450;2023-02-25T11:31:50;4.70;;;3.00;;
51048;SDS011;37084;55.228;36.450;2023-02-25T11:35:02;6.80;;;3.78;;
51048;SDS011;37084;55.228;36.450;2023-02-25T11:38:21;5.60;;;3.53;;
51048;SDS011;37084;55.228;36.450;2023-02-25T11:41:34;4.90;;;3.40;;
51048;SDS011;37084;55.228;36.450;2023-02-25T11:44:42;4.97;;;3.20;;
51048;SDS011;37084;55.228;36.450;2023-02-25T11:47:45;6.00;;;3.08;;
51048;SDS011;37084;55.228;36.450;2023-02-25T11:54:09;6.15;;;4.43;;
51048;SDS011;37084;55.228;36.450;2023-02-25T11:58:15;7.55;;;4.28;;
51048;SDS011;37084;55.228;36.450;2023-02-25T12:01:06;6.47;;;3.95;;
51048;SDS011;37084;55.228;36.450;2023-02-25T12:14:27;5.18;;;2.88;;
51048;SDS011;37084;55.228;36.450;2023-02-25T12:24:35;6.53;;;3.92;;
51048;SDS011;37084;55.228;36.450;2023-02-25T12:30:58;8.45;;;3.85;;
51048;SDS011;37084;55.228;36.450;2023-02-25T12:54:35;7.70;;;4.15;;
51048;SDS011;37084;55.228;36.450;2023-02-25T13:04:17;11.10;;;5.13;;
51048;SDS011;37084;55.228;36.450;2023-02-25T13:10:59;9.77;;;4.43;;
51048;SDS011;37084;55.228;36.450;2023-02-25T13:24:30;14.82;;;6.68;;
51048;SDS011;37084;55.228;36.450;2023-02-25T13:27:43;10.25;;;4.90;;
51048;SDS011;37084;55.228;36.450;2023-02-25T13:31:01;13.95;;;6.90;;
51048;SDS011;37084;55.228;36.450;2023-02-25T13:34:16;13.65;;;5.82;;
51048;SDS011;37084;55.228;36.450;2023-02-25T13:37:30;12.68;;;5.30;;
51048;SDS011;37084;55.228;36.450;2023-02-25T13:43:50;11.43;;;5.63;;
51048;SDS011;37084;55.228;36.450;2023-02-25T13:50:23;13.63;;;5.65;;
51048;SDS011;37084;55.228;36.450;2023-02-25T13:53:35;11.45;;;5.43;;
51048;SDS011;37084;55.228;36.450;2023-02-25T13:56:50;12.65;;;5.80;;
51048;SDS011;37084;55.228;36.450;2023-02-25T14:00:12;11.27;;;5.32;;
51048;SDS011;37084;55.228;36.450;2023-02-25T14:03:40;12.80;;;5.53;;
51048;SDS011;37084;55.228;36.450;2023-02-25T14:10:44;8.32;;;4.00;;
51048;SDS011;37084;55.228;36.450;2023-02-25T14:17:41;10.35;;;4.65;;
51048;SDS011;37084;55.228;36.450;2023-02-25T14:21:00;9.80;;;4.80;;
51048;SDS011;37084;55.228;36.450;2023-02-25T14:27:41;13.02;;;5.43;;
51048;SDS011;37084;55.228;36.450;2023-02-25T14:30:54;12.10;;;5.18;;
51048;SDS011;37084;55.228;36.450;2023-02-25T14:37:18;12.60;;;6.63;;
51048;SDS011;37084;55.228;36.450;2023-02-25T14:40:28;11.02;;;5.05;;
51048;SDS011;37084;55.228;36.450;2023-02-25T14:43:52;13.68;;;6.05;;
51048;SDS011;37084;55.228;36.450;2023-02-25T14:46:59;12.25;;;6.35;;
51048;SDS011;37084;55.228;36.450;2023-02-25T14:50:08;13.02;;;5.43;;
51048;SDS011;37084;55.228;36.450;2023-02-25T14:53:46;9.00;;;4.55;;
51048;SDS011;37084;55.228;36.450;2023-02-25T15:00:57;11.52;;;5.65;;
51048;SDS011;37084;55.228;36.450;2023-02-25T15:04:21;16.02;;;7.00;;
51048;SDS011;37084;55.228;36.450;2023-02-25T15:07:50;14.30;;;6.25;;
51048;SDS011;37084;55.228;36.450;2023-02-25T15:31:31;18.73;;;6.97;;
51048;SDS011;37084;55.228;36.450;2023-02-25T15:34:35;13.15;;;6.32;;
51048;SDS011;37084;55.228;36.450;2023-02-25T15:38:02;19.33;;;7.32;;
51048;SDS011;37084;55.228;36.450;2023-02-25T15:40:58;9.82;;;5.63;;
51048;SDS011;37084;55.228;36.450;2023-02-25T15:44:24;17.55;;;7.40;;
51048;SDS011;37084;55.228;36.450;2023-02-25T15:47:23;18.83;;;8.23;;
51048;SDS011;37084;55.228;36.450;2023-02-25T15:53:43;15.93;;;7.13;;
51048;SDS011;37084;55.228;36.450;2023-02-25T15:56:49;18.17;;;8.30;;
51048;SDS011;37084;55.228;36.450;2023-02-25T15:59:52;19.00;;;7.95;;
51048;SDS011;37084;55.228;36.450;2023-02-25T16:02:57;17.45;;;7.60;;
51048;SDS011;37084;55.228;36.450;2023-02-25T16:06:00;14.52;;;7.15;;
51048;SDS011;37084;55.228;36.450;2023-02-25T16:09:14;17.35;;;7.35;;
51048;SDS011;37084;55.228;36.450;2023-02-25T16:12:17;19.17;;;8.18;;
51048;SDS011;37084;55.228;36.450;2023-02-25T16:15:29;17.85;;;7.93;;
51048;SDS011;37084;55.228;36.450;2023-02-25T16:18:37;19.55;;;7.90;;
51048;SDS011;37084;55.228;36.450;2023-02-25T16:21:44;14.23;;;5.72;;
51048;SDS011;37084;55.228;36.450;2023-02-25T16:24:52;19.92;;;7.88;;
51048;SDS011;37084;55.228;36.450;2023-02-25T16:31:59;12.27;;;5.22;;
51048;SDS011;37084;55.228;36.450;2023-02-25T16:35:05;16.60;;;7.13;;
51048;SDS011;37084;55.228;36.450;2023-02-25T16:41:23;21.55;;;8.57;;
51048;SDS011;37084;55.228;36.450;2023-02-25T16:44:27;16.30;;;7.63;;
51048;SDS011;37084;55.228;36.450;2023-02-25T16:47:38;16.08;;;7.18;;
51048;SDS011;37084;55.228;36.450;2023-02-25T16:50:43;17.80;;;7.70;;
51048;SDS011;37084;55.228;36.450;2023-02-25T16:53:52;18.10;;;7.05;;
51048;SDS011;37084;55.228;36.450;2023-02-25T16:57:00;21.77;;;8.15;;
51048;SDS011;37084;55.228;36.450;2023-02-25T17:00:11;17.45;;;7.88;;
51048;SDS011;37084;55.228;36.450;2023-02-25T17:03:13;17.83;;;8.55;;
51048;SDS011;37084;55.228;36.450;2023-02-25T17:06:16;17.17;;;7.07;;
51048;SDS011;37084;55.228;36.450;2023-02-25T17:09:22;21.67;;;9.07;;
51048;SDS011;37084;55.228;36.450;2023-02-25T17:15:29;22.55;;;8.88;;
51048;SDS011;37084;55.228;36.450;2023-02-25T17:19:06;22.88;;;7.82;;
51048;SDS011;37084;55.228;36.450;2023-02-25T17:22:03;24.23;;;8.65;;
51048;SDS011;37084;55.228;36.450;2023-02-25T17:25:09;24.77;;;7.35;;
51048;SDS011;37084;55.228;36.450;2023-02-25T17:28:19;15.13;;;7.10;;
51048;SDS011;37084;55.228;36.450;2023-02-25T17:31:23;28.17;;;10.57;;
51048;SDS011;37084;55.228;36.450;2023-02-25T17:34:28;23.40;;;8.75;;
51048;SDS011;37084;55.228;36.450;2023-02-25T17:37:31;21.60;;;8.57;;
51048;SDS011;37084;55.228;36.450;2023-02-25T17:40:33;23.98;;;9.00;;
51048;SDS011;37084;55.228;36.450;2023-02-25T17:43:35;24.80;;;7.53;;
51048;SDS011;37084;55.228;36.450;2023-02-25T17:46:38;18.02;;;8.48;;
51048;SDS011;37084;55.228;36.450;2023-02-25T17:49:43;25.77;;;8.35;;
51048;SDS011;37084;55.228;36.450;2023-02-25T17:52:46;24.33;;;9.27;;
51048;SDS011;37084;55.228;36.450;2023-02-25T17:55:48;20.50;;;8.35;;
51048;SDS011;37084;55.228;36.450;2023-02-25T17:58:52;23.88;;;8.98;;
51048;SDS011;37084;55.228;36.450;2023-02-25T18:01:59;20.95;;;8.70;;
51048;SDS011;37084;55.228;36.450;2023-02-25T18:05:13;19.63;;;8.13;;
51048;SDS011;37084;55.228;36.450;2023-02-25T18:08:22;19.45;;;7.13;;
51048;SDS011;37084;55.228;36.450;2023-02-25T18:11:26;19.50;;;8.02;;
51048;SDS011;37084;55.228;36.450;2023-02-25T18:14:38;24.15;;;8.60;;
51048;SDS011;37084;55.228;36.450;2023-02-25T18:18:04;13.70;;;6.03;;
51048;SDS011;37084;55.228;36.450;2023-02-25T18:21:05;14.52;;;6.38;;
51048;SDS011;37084;55.228;36.450;2023-02-25T18:24:20;15.23;;;6.70;;
51048;SDS011;37084;55.228;36.450;2023-02-25T18:27:30;11.75;;;5.38;;
51048;SDS011;37084;55.228;36.450;2023-02-25T18:30:32;19.17;;;8.20;;
51048;SDS011;37084;55.228;36.450;2023-02-25T18:33:33;19.35;;;7.80;;
51048;SDS011;37084;55.228;36.450;2023-02-25T18:36:35;18.08;;;7.78;;
51048;SDS011;37084;55.228;36.450;2023-02-25T18:39:36;15.90;;;7.90;;
51048;SDS011;37084;55.228;36.450;2023-02-25T18:42:37;22.70;;;9.65;;
51048;SDS011;37084;55.228;36.450;2023-02-25T18:45:40;19.40;;;9.82;;
51048;SDS011;37084;55.228;36.450;2023-02-25T18:48:41;20.25;;;7.97;;
51048;SDS011;37084;55.228;36.450;2023-02-25T18:51:42;15.88;;;6.97;;
51048;SDS011;37084;55.228;36.450;2023-02-25T18:54:44;22.85;;;7.82;;
51048;SDS011;37084;55.228;36.450;2023-02-25T18:57:45;17.17;;;5.40;;
51048;SDS011;37084;55.228;36.450;2023-02-25T19:00:51;23.83;;;7.32;;
51048;SDS011;37084;55.228;36.450;2023-02-25T19:03:54;20.65;;;7.47;;
51048;SDS011;37084;55.228;36.450;2023-02-25T19:06:59;15.95;;;6.80;;
51048;SDS011;37084;55.228;36.450;2023-02-25T19:10:01;15.32;;;6.75;;
51048;SDS011;37084;55.228;36.450;2023-02-25T19:13:04;17.70;;;7.88;;
51048;SDS011;37084;55.228;36.450;2023-02-25T19:16:07;17.83;;;7.18;;
51048;SDS011;37084;55.228;36.450;2023-02-25T19:19:08;15.13;;;8.48;;
51048;SDS011;37084;55.228;36.450;2023-02-25T19:22:10;13.27;;;5.80;;
51048;SDS011;37084;55.228;36.450;2023-02-25T19:25:45;21.02;;;8.07;;
51048;SDS011;37084;55.228;36.450;2023-02-25T19:28:40;22.52;;;11.20;;
51048;SDS011;37084;55.228;36.450;2023-02-25T19:31:41;22.63;;;9.73;;
51048;SDS011;37084;55.228;36.450;2023-02-25T19:34:42;15.15;;;7.20;;
51048;SDS011;37084;55.228;36.450;2023-02-25T19:37:44;20.33;;;8.02;;
51048;SDS011;37084;55.228;36.450;2023-02-25T19:40:46;15.27;;;6.10;;
51048;SDS011;37084;55.228;36.450;2023-02-25T19:43:47;15.50;;;6.72;;
51048;SDS011;37084;55.228;36.450;2023-02-25T19:46:48;22.52;;;8.32;;
51048;SDS011;37084;55.228;36.450;2023-02-25T19:49:49;15.48;;;6.20;;
51048;SDS011;37084;55.228;36.450;2023-02-25T19:52:51;18.92;;;8.32;;
51048;SDS011;37084;55.228;36.450;2023-02-25T19:55:56;18.60;;;8.50;;
51048;SDS011;37084;55.228;36.450;2023-02-25T19:58:57;18.42;;;7.50;;
51048;SDS011;37084;55.228;36.450;2023-02-25T20:01:58;16.25;;;6.15;;
51048;SDS011;37084;55.228;36.450;2023-02-25T20:04:59;17.45;;;7.13;;
51048;SDS011;37084;55.228;36.450;2023-02-25T20:08:01;15.65;;;7.30;;
51048;SDS011;37084;55.228;36.450;2023-02-25T20:11:02;16.38;;;7.30;;
51048;SDS011;37084;55.228;36.450;2023-02-25T20:14:09;14.60;;;6.78;;
51048;SDS011;37084;55.228;36.450;2023-02-25T20:17:13;15.02;;;6.95;;
51048;SDS011;37084;55.228;36.450;2023-02-25T20:20:14;14.30;;;6.60;;
51048;SDS011;37084;55.228;36.450;2023-02-25T20:23:16;16.48;;;6.38;;
51048;SDS011;37084;55.228;36.450;2023-02-25T20:26:17;18.83;;;6.82;;
51048;SDS011;37084;55.228;36.450;2023-02-25T20:29:19;15.57;;;6.32;;
51048;SDS011;37084;55.228;36.450;2023-02-25T20:32:20;14.75;;;5.72;;
51048;SDS011;37084;55.228;36.450;2023-02-25T20:35:22;16.95;;;6.75;;
51048;SDS011;37084;55.228;36.450;2023-02-25T20:38:28;21.13;;;8.02;;
51048;SDS011;37084;55.228;36.450;2023-02-25T20:41:34;10.27;;;4.60;;
51048;SDS011;37084;55.228;36.450;2023-02-25T20:44:36;13.98;;;6.90;;
51048;SDS011;37084;55.228;36.450;2023-02-25T20:47:37;12.70;;;5.65;;
51048;SDS011;37084;55.228;36.450;2023-02-25T20:50:39;16.67;;;7.85;;
51048;SDS011;37084;55.228;36.450;2023-02-25T20:53:41;13.48;;;5.75;;